sensor_id;sensor_type;location;lat;lon;timestamp;P1;durP1;ratioP1;P2;durP2;ratioP2
46128;SDS011;31860;45.186;5.790;2022-12-29T00:02:19;1.20;;;0.93;;
46128;SDS011;31860;45.186;5.790;2022-12-29T00:04:44;1.67;;;1.58;;
46128;SDS011;31860;45.186;5.790;2022-12-29T00:07:10;2.05;;;1.73;;
46128;SDS011;31860;45.186;5.790;2022-12-29T00:09:36;1.45;;;1.17;;
46128;SDS011;31860;45.186;5.790;2022-12-29T00:12:02;2.35;;;0.80;;
46128;SDS011;31860;45.186;5.790;2022-12-29T00:14:28;2.85;;;1.33;;
46128;SDS011;31860;45.186;5.790;2022-12-29T00:17:12;3.40;;;1.83;;
46128;SDS011;31860;45.186;5.790;2022-12-29T00:19:38;2.83;;;1.75;;
46128;SDS011;31860;45.186;5.790;2022-12-29T00:22:22;3.30;;;2.08;;
46128;SDS011;31860;45.186;5.790;2022-12-29T00:25:07;4.38;;;1.58;;
46128;SDS011;31860;45.186;5.790;2022-12-29T00:27:56;6.95;;;1.75;;
46128;SDS011;31860;45.186;5.790;2022-12-29T00:30:40;4.75;;;2.63;;
46128;SDS011;31860;45.186;5.790;2022-12-29T00:33:26;3.83;;;1.70;;
46128;SDS011;31860;45.186;5.790;2022-12-29T00:39:07;5.95;;;2.47;;
46128;SDS011;31860;45.186;5.790;2022-12-29T00:42:07;3.33;;;1.67;;
46128;SDS011;31860;45.186;5.790;2022-12-29T00:45:02;3.35;;;2.05;;
46128;SDS011;31860;45.186;5.790;2022-12-29T00:47:28;3.30;;;2.00;;
46128;SDS011;31860;45.186;5.790;2022-12-29T00:49:53;4.13;;;2.13;;
46128;SDS011;31860;45.186;5.790;2022-12-29T00:52:19;4.00;;;1.77;;
46128;SDS011;31860;45.186;5.790;2022-12-29T00:54:44;4.35;;;1.83;;
46128;SDS011;31860;45.186;5.790;2022-12-29T00:57:09;2.45;;;1.58;;
46128;SDS011;31860;45.186;5.790;2022-12-29T00:59:36;6.20;;;1.77;;
46128;SDS011;31860;45.186;5.790;2022-12-29T01:02:02;3.53;;;1.70;;
46128;SDS011;31860;45.186;5.790;2022-12-29T01:04:28;2.80;;;1.70;;
46128;SDS011;31860;45.186;5.790;2022-12-29T01:06:53;1.85;;;1.75;;
46128;SDS011;31860;45.186;5.790;2022-12-29T01:09:18;1.55;;;0.90;;
46128;SDS011;31860;45.186;5.790;2022-12-29T01:12:03;3.40;;;1.90;;
46128;SDS011;31860;45.186;5.790;2022-12-29T01:14:29;4.13;;;2.00;;
46128;SDS011;31860;45.186;5.790;2022-12-29T01:16:55;3.00;;;1.70;;
46128;SDS011;31860;45.186;5.790;2022-12-29T01:19:21;2.38;;;1.67;;
46128;SDS011;31860;45.186;5.790;2022-12-29T01:21:47;1.60;;;1.38;;
46128;SDS011;31860;45.186;5.790;2022-12-29T01:24:13;3.33;;;1.23;;
46128;SDS011;31860;45.186;5.790;2022-12-29T01:26:40;1.50;;;1.23;;
46128;SDS011;31860;45.186;5.790;2022-12-29T01:29:05;3.65;;;2.08;;
46128;SDS011;31860;45.186;5.790;2022-12-29T01:31:31;2.60;;;1.85;;
46128;SDS011;31860;45.186;5.790;2022-12-29T01:33:56;3.72;;;1.98;;
46128;SDS011;31860;45.186;5.790;2022-12-29T01:36:21;2.85;;;1.75;;
46128;SDS011;31860;45.186;5.790;2022-12-29T01:38:47;1.52;;;1.38;;
46128;SDS011;31860;45.186;5.790;2022-12-29T01:41:14;2.75;;;1.88;;
46128;SDS011;31860;45.186;5.790;2022-12-29T01:49:18;4.78;;;2.42;;
46128;SDS011;31860;45.186;5.790;2022-12-29T01:54:40;3.47;;;2.13;;
46128;SDS011;31860;45.186;5.790;2022-12-29T01:57:12;3.50;;;1.95;;
46128;SDS011;31860;45.186;5.790;2022-12-29T01:59:50;3.10;;;2.13;;
46128;SDS011;31860;45.186;5.790;2022-12-29T02:02:18;2.92;;;1.65;;
46128;SDS011;31860;45.186;5.790;2022-12-29T02:04:44;1.38;;;1.27;;
46128;SDS011;31860;45.186;5.790;2022-12-29T02:07:11;1.75;;;1.42;;
46128;SDS011;31860;45.186;5.790;2022-12-29T02:09:42;1.75;;;1.35;;
46128;SDS011;31860;45.186;5.790;2022-12-29T02:12:08;1.67;;;1.52;;
46128;SDS011;31860;45.186;5.790;2022-12-29T02:14:35;3.28;;;1.55;;
46128;SDS011;31860;45.186;5.790;2022-12-29T02:30:37;2.83;;;1.67;;
46128;SDS011;31860;45.186;5.790;2022-12-29T02:38:44;2.97;;;2.03;;
46128;SDS011;31860;45.186;5.790;2022-12-29T02:41:32;1.30;;;1.10;;
46128;SDS011;31860;45.186;5.790;2022-12-29T02:44:12;2.83;;;1.95;;
46128;SDS011;31860;45.186;5.790;2022-12-29T02:46:53;1.10;;;1.00;;
46128;SDS011;31860;45.186;5.790;2022-12-29T02:49:36;2.50;;;1.58;;
46128;SDS011;31860;45.186;5.790;2022-12-29T02:52:25;2.88;;;0.77;;
46128;SDS011;31860;45.186;5.790;2022-12-29T02:54:58;1.00;;;0.90;;
46128;SDS011;31860;45.186;5.790;2022-12-29T02:59:55;1.23;;;1.02;;
46128;SDS011;31860;45.186;5.790;2022-12-29T03:05:27;1.45;;;1.35;;
46128;SDS011;31860;45.186;5.790;2022-12-29T03:13:45;4.50;;;1.35;;
46128;SDS011;31860;45.186;5.790;2022-12-29T03:17:16;0.98;;;0.90;;
46128;SDS011;31860;45.186;5.790;2022-12-29T03:22:02;1.75;;;1.30;;
46128;SDS011;31860;45.186;5.790;2022-12-29T03:24:51;1.05;;;1.00;;
46128;SDS011;31860;45.186;5.790;2022-12-29T03:27:23;3.55;;;1.85;;
46128;SDS011;31860;45.186;5.790;2022-12-29T03:30:03;2.08;;;1.70;;
46128;SDS011;31860;45.186;5.790;2022-12-29T03:32:34;1.85;;;1.02;;
46128;SDS011;31860;45.186;5.790;2022-12-29T03:35:04;1.67;;;1.07;;
46128;SDS011;31860;45.186;5.790;2022-12-29T03:37:35;0.95;;;0.88;;
46128;SDS011;31860;45.186;5.790;2022-12-29T03:40:04;0.55;;;0.47;;
46128;SDS011;31860;45.186;5.790;2022-12-29T03:42:32;1.13;;;1.02;;
46128;SDS011;31860;45.186;5.790;2022-12-29T03:45:01;2.35;;;1.10;;
46128;SDS011;31860;45.186;5.790;2022-12-29T03:47:26;4.57;;;1.35;;
46128;SDS011;31860;45.186;5.790;2022-12-29T03:49:52;1.60;;;1.40;;
46128;SDS011;31860;45.186;5.790;2022-12-29T03:52:18;2.33;;;1.23;;
46128;SDS011;31860;45.186;5.790;2022-12-29T03:54:44;0.95;;;0.88;;
46128;SDS011;31860;45.186;5.790;2022-12-29T03:57:10;0.55;;;0.55;;
46128;SDS011;31860;45.186;5.790;2022-12-29T03:59:36;0.63;;;0.63;;
46128;SDS011;31860;45.186;5.790;2022-12-29T04:02:01;1.20;;;0.65;;
46128;SDS011;31860;45.186;5.790;2022-12-29T04:04:27;1.10;;;0.65;;
46128;SDS011;31860;45.186;5.790;2022-12-29T04:06:52;1.10;;;1.02;;
46128;SDS011;31860;45.186;5.790;2022-12-29T04:09:18;0.50;;;0.50;;
46128;SDS011;31860;45.186;5.790;2022-12-29T04:11:43;1.27;;;0.63;;
46128;SDS011;31860;45.186;5.790;2022-12-29T04:14:09;2.10;;;1.27;;
46128;SDS011;31860;45.186;5.790;2022-12-29T04:16:34;1.17;;;0.95;;
46128;SDS011;31860;45.186;5.790;2022-12-29T04:19:01;0.63;;;0.63;;
46128;SDS011;31860;45.186;5.790;2022-12-29T04:21:26;1.40;;;1.30;;
46128;SDS011;31860;45.186;5.790;2022-12-29T04:23:52;0.73;;;0.73;;
46128;SDS011;31860;45.186;5.790;2022-12-29T04:26:17;2.88;;;1.10;;
46128;SDS011;31860;45.186;5.790;2022-12-29T04:28:43;0.95;;;0.75;;
46128;SDS011;31860;45.186;5.790;2022-12-29T04:31:08;0.77;;;0.77;;
46128;SDS011;31860;45.186;5.790;2022-12-29T04:33:34;1.00;;;0.57;;
46128;SDS011;31860;45.186;5.790;2022-12-29T04:35:59;12.23;;;0.77;;
46128;SDS011;31860;45.186;5.790;2022-12-29T04:38:24;3.13;;;1.23;;
46128;SDS011;31860;45.186;5.790;2022-12-29T04:40:50;2.67;;;1.20;;
46128;SDS011;31860;45.186;5.790;2022-12-29T04:43:16;4.63;;;0.88;;
46128;SDS011;31860;45.186;5.790;2022-12-29T04:45:44;0.68;;;0.50;;
46128;SDS011;31860;45.186;5.790;2022-12-29T04:48:12;1.45;;;0.50;;
46128;SDS011;31860;45.186;5.790;2022-12-29T04:50:39;4.10;;;1.08;;
46128;SDS011;31860;45.186;5.790;2022-12-29T04:53:05;0.80;;;0.75;;
46128;SDS011;31860;45.186;5.790;2022-12-29T04:55:30;1.23;;;0.57;;
46128;SDS011;31860;45.186;5.790;2022-12-29T04:57:56;0.40;;;0.40;;
46128;SDS011;31860;45.186;5.790;2022-12-29T05:00:21;0.70;;;0.65;;
46128;SDS011;31860;45.186;5.790;2022-12-29T05:02:47;0.73;;;0.63;;
46128;SDS011;31860;45.186;5.790;2022-12-29T05:05:13;0.52;;;0.52;;
46128;SDS011;31860;45.186;5.790;2022-12-29T05:07:38;0.82;;;0.75;;
46128;SDS011;31860;45.186;5.790;2022-12-29T05:10:04;1.88;;;0.90;;
46128;SDS011;31860;45.186;5.790;2022-12-29T05:12:34;1.27;;;0.95;;
46128;SDS011;31860;45.186;5.790;2022-12-29T05:15:01;2.75;;;1.05;;
46128;SDS011;31860;45.186;5.790;2022-12-29T05:17:30;2.88;;;1.27;;
46128;SDS011;31860;45.186;5.790;2022-12-29T05:19:55;1.45;;;1.25;;
46128;SDS011;31860;45.186;5.790;2022-12-29T05:22:21;1.95;;;1.30;;
46128;SDS011;31860;45.186;5.790;2022-12-29T05:24:46;1.42;;;0.90;;
46128;SDS011;31860;45.186;5.790;2022-12-29T05:27:12;1.80;;;1.13;;
46128;SDS011;31860;45.186;5.790;2022-12-29T05:29:37;2.78;;;1.83;;
46128;SDS011;31860;45.186;5.790;2022-12-29T05:32:03;1.77;;;0.85;;
46128;SDS011;31860;45.186;5.790;2022-12-29T05:34:28;3.13;;;1.33;;
46128;SDS011;31860;45.186;5.790;2022-12-29T05:36:54;2.60;;;2.15;;
46128;SDS011;31860;45.186;5.790;2022-12-29T05:39:19;1.10;;;0.80;;
46128;SDS011;31860;45.186;5.790;2022-12-29T05:41:45;0.80;;;0.80;;
46128;SDS011;31860;45.186;5.790;2022-12-29T05:44:11;3.60;;;1.00;;
46128;SDS011;31860;45.186;5.790;2022-12-29T05:46:37;1.83;;;1.10;;
46128;SDS011;31860;45.186;5.790;2022-12-29T05:49:02;3.20;;;1.00;;
46128;SDS011;31860;45.186;5.790;2022-12-29T05:51:28;1.67;;;1.20;;
46128;SDS011;31860;45.186;5.790;2022-12-29T05:53:53;1.02;;;0.93;;
46128;SDS011;31860;45.186;5.790;2022-12-29T05:56:19;1.58;;;1.10;;
46128;SDS011;31860;45.186;5.790;2022-12-29T05:58:44;1.00;;;1.00;;
46128;SDS011;31860;45.186;5.790;2022-12-29T06:01:09;1.17;;;1.02;;
46128;SDS011;31860;45.186;5.790;2022-12-29T06:03:35;0.93;;;0.80;;
46128;SDS011;31860;45.186;5.790;2022-12-29T06:06:00;2.08;;;1.27;;
46128;SDS011;31860;45.186;5.790;2022-12-29T06:08:25;0.60;;;0.60;;
46128;SDS011;31860;45.186;5.790;2022-12-29T06:10:51;2.35;;;0.68;;
46128;SDS011;31860;45.186;5.790;2022-12-29T06:13:16;1.27;;;1.08;;
46128;SDS011;31860;45.186;5.790;2022-12-29T06:15:42;0.80;;;0.75;;
46128;SDS011;31860;45.186;5.790;2022-12-29T06:18:07;1.92;;;1.83;;
46128;SDS011;31860;45.186;5.790;2022-12-29T06:20:33;0.65;;;0.65;;
46128;SDS011;31860;45.186;5.790;2022-12-29T06:22:58;1.30;;;0.88;;
46128;SDS011;31860;45.186;5.790;2022-12-29T06:25:23;1.33;;;1.13;;
46128;SDS011;31860;45.186;5.790;2022-12-29T06:27:49;2.15;;;1.08;;
46128;SDS011;31860;45.186;5.790;2022-12-29T06:30:14;1.20;;;1.10;;
46128;SDS011;31860;45.186;5.790;2022-12-29T06:32:41;2.03;;;1.02;;
46128;SDS011;31860;45.186;5.790;2022-12-29T06:35:06;0.70;;;0.70;;
46128;SDS011;31860;45.186;5.790;2022-12-29T06:37:32;0.88;;;0.82;;
46128;SDS011;31860;45.186;5.790;2022-12-29T06:39:57;2.17;;;1.17;;
46128;SDS011;31860;45.186;5.790;2022-12-29T06:42:23;1.02;;;0.85;;
46128;SDS011;31860;45.186;5.790;2022-12-29T06:44:48;1.23;;;1.05;;
46128;SDS011;31860;45.186;5.790;2022-12-29T06:47:14;0.70;;;0.70;;
46128;SDS011;31860;45.186;5.790;2022-12-29T06:49:40;0.40;;;0.40;;
46128;SDS011;31860;45.186;5.790;2022-12-29T06:52:06;3.78;;;1.10;;
46128;SDS011;31860;45.186;5.790;2022-12-29T06:54:31;2.03;;;1.15;;
46128;SDS011;31860;45.186;5.790;2022-12-29T06:56:57;1.02;;;0.80;;
46128;SDS011;31860;45.186;5.790;2022-12-29T06:59:23;2.10;;;1.00;;
46128;SDS011;31860;45.186;5.790;2022-12-29T07:01:49;2.25;;;2.00;;
46128;SDS011;31860;45.186;5.790;2022-12-29T07:04:15;1.10;;;0.93;;
46128;SDS011;31860;45.186;5.790;2022-12-29T07:06:40;0.75;;;0.75;;
46128;SDS011;31860;45.186;5.790;2022-12-29T07:09:06;0.98;;;0.98;;
46128;SDS011;31860;45.186;5.790;2022-12-29T07:11:33;0.47;;;0.47;;
46128;SDS011;31860;45.186;5.790;2022-12-29T07:13:59;0.73;;;0.73;;
46128;SDS011;31860;45.186;5.790;2022-12-29T07:16:24;0.40;;;0.40;;
46128;SDS011;31860;45.186;5.790;2022-12-29T07:18:49;4.03;;;1.23;;
46128;SDS011;31860;45.186;5.790;2022-12-29T07:21:15;1.63;;;1.05;;
46128;SDS011;31860;45.186;5.790;2022-12-29T07:23:41;1.63;;;0.90;;
46128;SDS011;31860;45.186;5.790;2022-12-29T07:26:07;2.15;;;1.10;;
46128;SDS011;31860;45.186;5.790;2022-12-29T07:28:35;0.75;;;0.75;;
46128;SDS011;31860;45.186;5.790;2022-12-29T07:31:01;1.50;;;1.00;;
46128;SDS011;31860;45.186;5.790;2022-12-29T07:33:30;0.95;;;0.80;;
46128;SDS011;31860;45.186;5.790;2022-12-29T07:35:56;0.70;;;0.70;;
46128;SDS011;31860;45.186;5.790;2022-12-29T07:38:22;0.82;;;0.80;;
46128;SDS011;31860;45.186;5.790;2022-12-29T07:40:47;0.70;;;0.70;;
46128;SDS011;31860;45.186;5.790;2022-12-29T07:43:13;2.63;;;1.45;;
46128;SDS011;31860;45.186;5.790;2022-12-29T07:45:38;1.08;;;1.00;;
46128;SDS011;31860;45.186;5.790;2022-12-29T07:48:04;0.70;;;0.70;;
46128;SDS011;31860;45.186;5.790;2022-12-29T07:50:32;0.90;;;0.70;;
46128;SDS011;31860;45.186;5.790;2022-12-29T07:52:58;0.75;;;0.52;;
46128;SDS011;31860;45.186;5.790;2022-12-29T07:55:23;1.05;;;0.73;;
46128;SDS011;31860;45.186;5.790;2022-12-29T07:57:49;0.55;;;0.55;;
46128;SDS011;31860;45.186;5.790;2022-12-29T08:00:14;0.77;;;0.60;;
46128;SDS011;31860;45.186;5.790;2022-12-29T08:02:40;0.70;;;0.70;;
46128;SDS011;31860;45.186;5.790;2022-12-29T08:05:06;1.45;;;0.63;;
46128;SDS011;31860;45.186;5.790;2022-12-29T08:07:31;1.05;;;0.73;;
46128;SDS011;31860;45.186;5.790;2022-12-29T08:09:56;0.40;;;0.40;;
46128;SDS011;31860;45.186;5.790;2022-12-29T08:12:22;0.50;;;0.47;;
46128;SDS011;31860;45.186;5.790;2022-12-29T08:14:48;0.65;;;0.50;;
46128;SDS011;31860;45.186;5.790;2022-12-29T08:17:13;0.65;;;0.65;;
46128;SDS011;31860;45.186;5.790;2022-12-29T08:19:39;1.02;;;0.90;;
46128;SDS011;31860;45.186;5.790;2022-12-29T08:22:05;2.85;;;0.93;;
46128;SDS011;31860;45.186;5.790;2022-12-29T08:24:30;0.40;;;0.40;;
46128;SDS011;31860;45.186;5.790;2022-12-29T08:26:55;0.73;;;0.73;;
46128;SDS011;31860;45.186;5.790;2022-12-29T08:29:21;0.70;;;0.70;;
46128;SDS011;31860;45.186;5.790;2022-12-29T08:31:47;0.60;;;0.60;;
46128;SDS011;31860;45.186;5.790;2022-12-29T08:34:13;0.40;;;0.40;;
46128;SDS011;31860;45.186;5.790;2022-12-29T08:36:38;3.53;;;0.73;;
46128;SDS011;31860;45.186;5.790;2022-12-29T08:39:04;0.70;;;0.70;;
46128;SDS011;31860;45.186;5.790;2022-12-29T08:41:30;0.65;;;0.32;;
46128;SDS011;31860;45.186;5.790;2022-12-29T08:43:55;2.28;;;0.60;;
46128;SDS011;31860;45.186;5.790;2022-12-29T08:46:21;0.63;;;0.55;;
46128;SDS011;31860;45.186;5.790;2022-12-29T08:48:46;0.57;;;0.57;;
46128;SDS011;31860;45.186;5.790;2022-12-29T08:51:11;0.50;;;0.50;;
46128;SDS011;31860;45.186;5.790;2022-12-29T08:53:37;0.80;;;0.73;;
46128;SDS011;31860;45.186;5.790;2022-12-29T08:56:03;0.50;;;0.50;;
46128;SDS011;31860;45.186;5.790;2022-12-29T08:58:29;0.60;;;0.60;;
46128;SDS011;31860;45.186;5.790;2022-12-29T09:00:56;1.15;;;0.80;;
46128;SDS011;31860;45.186;5.790;2022-12-29T09:03:23;0.70;;;0.70;;
46128;SDS011;31860;45.186;5.790;2022-12-29T09:05:50;0.50;;;0.50;;
46128;SDS011;31860;45.186;5.790;2022-12-29T09:08:16;0.57;;;0.57;;
46128;SDS011;31860;45.186;5.790;2022-12-29T09:10:43;0.82;;;0.80;;
46128;SDS011;31860;45.186;5.790;2022-12-29T09:13:09;0.98;;;0.70;;
46128;SDS011;31860;45.186;5.790;2022-12-29T09:15:35;1.67;;;0.77;;
46128;SDS011;31860;45.186;5.790;2022-12-29T09:18:00;0.70;;;0.55;;
46128;SDS011;31860;45.186;5.790;2022-12-29T09:20:25;1.45;;;0.90;;
46128;SDS011;31860;45.186;5.790;2022-12-29T09:22:51;0.85;;;0.85;;
46128;SDS011;31860;45.186;5.790;2022-12-29T09:25:16;0.75;;;0.63;;
46128;SDS011;31860;45.186;5.790;2022-12-29T09:27:42;0.52;;;0.52;;
46128;SDS011;31860;45.186;5.790;2022-12-29T09:30:10;0.30;;;0.30;;
46128;SDS011;31860;45.186;5.790;2022-12-29T09:32:37;1.65;;;0.95;;
46128;SDS011;31860;45.186;5.790;2022-12-29T09:35:02;1.85;;;0.68;;
46128;SDS011;31860;45.186;5.790;2022-12-29T09:37:28;0.50;;;0.47;;
46128;SDS011;31860;45.186;5.790;2022-12-29T09:39:53;0.85;;;0.60;;
46128;SDS011;31860;45.186;5.790;2022-12-29T09:42:22;0.65;;;0.65;;
46128;SDS011;31860;45.186;5.790;2022-12-29T09:47:41;3.40;;;0.80;;
46128;SDS011;31860;45.186;5.790;2022-12-29T09:52:53;0.60;;;0.60;;
46128;SDS011;31860;45.186;5.790;2022-12-29T09:55:26;0.70;;;0.57;;
46128;SDS011;31860;45.186;5.790;2022-12-29T10:00:56;0.82;;;0.40;;
46128;SDS011;31860;45.186;5.790;2022-12-29T10:03:28;0.73;;;0.60;;
46128;SDS011;31860;45.186;5.790;2022-12-29T10:08:44;0.40;;;0.40;;
46128;SDS011;31860;45.186;5.790;2022-12-29T10:25:09;1.23;;;0.88;;
46128;SDS011;31860;45.186;5.790;2022-12-29T10:27:43;0.45;;;0.45;;
46128;SDS011;31860;45.186;5.790;2022-12-29T10:30:12;1.52;;;0.90;;
46128;SDS011;31860;45.186;5.790;2022-12-29T10:32:40;0.63;;;0.50;;
46128;SDS011;31860;45.186;5.790;2022-12-29T10:38:11;0.30;;;0.30;;
46128;SDS011;31860;45.186;5.790;2022-12-29T10:40:38;0.70;;;0.57;;
46128;SDS011;31860;45.186;5.790;2022-12-29T10:43:24;0.40;;;0.40;;
46128;SDS011;31860;45.186;5.790;2022-12-29T10:45:55;0.88;;;0.85;;
46128;SDS011;31860;45.186;5.790;2022-12-29T10:48:34;0.52;;;0.50;;
46128;SDS011;31860;45.186;5.790;2022-12-29T10:51:01;1.02;;;0.82;;
46128;SDS011;31860;45.186;5.790;2022-12-29T10:53:38;0.47;;;0.47;;
46128;SDS011;31860;45.186;5.790;2022-12-29T10:56:14;0.90;;;0.57;;
46128;SDS011;31860;45.186;5.790;2022-12-29T10:59:03;0.50;;;0.50;;
46128;SDS011;31860;45.186;5.790;2022-12-29T11:07:33;1.42;;;1.10;;
46128;SDS011;31860;45.186;5.790;2022-12-29T11:12:54;0.55;;;0.52;;
46128;SDS011;31860;45.186;5.790;2022-12-29T11:15:24;1.60;;;0.93;;
46128;SDS011;31860;45.186;5.790;2022-12-29T11:17:51;0.30;;;0.30;;
46128;SDS011;31860;45.186;5.790;2022-12-29T11:22:54;0.40;;;0.40;;
46128;SDS011;31860;45.186;5.790;2022-12-29T11:25:19;0.30;;;0.30;;
46128;SDS011;31860;45.186;5.790;2022-12-29T11:27:58;0.77;;;0.55;;
46128;SDS011;31860;45.186;5.790;2022-12-29T11:30:25;1.05;;;0.70;;
46128;SDS011;31860;45.186;5.790;2022-12-29T11:32:55;0.63;;;0.63;;
46128;SDS011;31860;45.186;5.790;2022-12-29T11:40:44;0.40;;;0.40;;
46128;SDS011;31860;45.186;5.790;2022-12-29T11:43:11;1.13;;;1.00;;
46128;SDS011;31860;45.186;5.790;2022-12-29T11:45:51;0.32;;;0.32;;
46128;SDS011;31860;45.186;5.790;2022-12-29T11:48:18;0.65;;;0.65;;
46128;SDS011;31860;45.186;5.790;2022-12-29T11:50:53;0.75;;;0.70;;
46128;SDS011;31860;45.186;5.790;2022-12-29T11:55:51;1.05;;;0.43;;
46128;SDS011;31860;45.186;5.790;2022-12-29T11:58:19;0.75;;;0.73;;
46128;SDS011;31860;45.186;5.790;2022-12-29T12:00:44;0.50;;;0.50;;
46128;SDS011;31860;45.186;5.790;2022-12-29T12:03:16;0.68;;;0.40;;
46128;SDS011;31860;45.186;5.790;2022-12-29T12:08:36;0.50;;;0.50;;
46128;SDS011;31860;45.186;5.790;2022-12-29T12:11:24;0.45;;;0.43;;
46128;SDS011;31860;45.186;5.790;2022-12-29T12:14:11;1.35;;;0.50;;
46128;SDS011;31860;45.186;5.790;2022-12-29T12:16:46;0.90;;;0.55;;
46128;SDS011;31860;45.186;5.790;2022-12-29T12:27:36;0.60;;;0.60;;
46128;SDS011;31860;45.186;5.790;2022-12-29T12:30:14;0.30;;;0.30;;
46128;SDS011;31860;45.186;5.790;2022-12-29T12:36:08;0.35;;;0.35;;
46128;SDS011;31860;45.186;5.790;2022-12-29T12:41:08;0.50;;;0.50;;
46128;SDS011;31860;45.186;5.790;2022-12-29T12:46:18;0.60;;;0.60;;
46128;SDS011;31860;45.186;5.790;2022-12-29T12:48:55;0.30;;;0.30;;
46128;SDS011;31860;45.186;5.790;2022-12-29T12:57:15;1.40;;;0.70;;
46128;SDS011;31860;45.186;5.790;2022-12-29T13:00:29;1.02;;;0.73;;
46128;SDS011;31860;45.186;5.790;2022-12-29T13:05:09;0.20;;;0.20;;
46128;SDS011;31860;45.186;5.790;2022-12-29T13:19:29;0.47;;;0.30;;
46128;SDS011;31860;45.186;5.790;2022-12-29T13:24:50;0.30;;;0.30;;
46128;SDS011;31860;45.186;5.790;2022-12-29T13:27:37;1.25;;;0.68;;
46128;SDS011;31860;45.186;5.790;2022-12-29T13:36:00;0.50;;;0.50;;
46128;SDS011;31860;45.186;5.790;2022-12-29T13:38:41;0.68;;;0.68;;
46128;SDS011;31860;45.186;5.790;2022-12-29T13:41:14;0.38;;;0.35;;
46128;SDS011;31860;45.186;5.790;2022-12-29T13:43:46;0.30;;;0.30;;
46128;SDS011;31860;45.186;5.790;2022-12-29T13:46:18;1.10;;;0.63;;
46128;SDS011;31860;45.186;5.790;2022-12-29T13:48:58;0.30;;;0.30;;
46128;SDS011;31860;45.186;5.790;2022-12-29T13:51:55;0.22;;;0.22;;
46128;SDS011;31860;45.186;5.790;2022-12-29T14:00:07;0.70;;;0.70;;
46128;SDS011;31860;45.186;5.790;2022-12-29T14:07:46;0.98;;;0.88;;
46128;SDS011;31860;45.186;5.790;2022-12-29T14:10:27;3.40;;;1.38;;
46128;SDS011;31860;45.186;5.790;2022-12-29T14:13:22;2.42;;;1.08;;
46128;SDS011;31860;45.186;5.790;2022-12-29T14:15:51;1.15;;;0.80;;
46128;SDS011;31860;45.186;5.790;2022-12-29T14:18:23;0.38;;;0.38;;
46128;SDS011;31860;45.186;5.790;2022-12-29T14:23:37;0.40;;;0.40;;
46128;SDS011;31860;45.186;5.790;2022-12-29T14:28:54;0.38;;;0.38;;
46128;SDS011;31860;45.186;5.790;2022-12-29T14:31:32;0.52;;;0.52;;
46128;SDS011;31860;45.186;5.790;2022-12-29T14:36:34;1.67;;;0.57;;
46128;SDS011;31860;45.186;5.790;2022-12-29T14:39:04;0.40;;;0.40;;
46128;SDS011;31860;45.186;5.790;2022-12-29T14:47:48;0.45;;;0.30;;
46128;SDS011;31860;45.186;5.790;2022-12-29T14:50:36;0.52;;;0.52;;
46128;SDS011;31860;45.186;5.790;2022-12-29T14:53:06;0.40;;;0.30;;
46128;SDS011;31860;45.186;5.790;2022-12-29T14:55:55;0.47;;;0.47;;
46128;SDS011;31860;45.186;5.790;2022-12-29T14:58:25;0.50;;;0.50;;
46128;SDS011;31860;45.186;5.790;2022-12-29T15:00:53;2.85;;;0.47;;
46128;SDS011;31860;45.186;5.790;2022-12-29T15:03:22;0.35;;;0.35;;
46128;SDS011;31860;45.186;5.790;2022-12-29T15:08:18;0.30;;;0.30;;
46128;SDS011;31860;45.186;5.790;2022-12-29T15:10:53;0.45;;;0.43;;
46128;SDS011;31860;45.186;5.790;2022-12-29T15:13:37;0.50;;;0.50;;
46128;SDS011;31860;45.186;5.790;2022-12-29T15:16:04;0.50;;;0.40;;
46128;SDS011;31860;45.186;5.790;2022-12-29T15:18:45;1.00;;;0.98;;
46128;SDS011;31860;45.186;5.790;2022-12-29T15:21:11;0.90;;;0.90;;
46128;SDS011;31860;45.186;5.790;2022-12-29T15:23:39;2.78;;;0.93;;
46128;SDS011;31860;45.186;5.790;2022-12-29T15:26:09;2.55;;;1.50;;
46128;SDS011;31860;45.186;5.790;2022-12-29T15:31:12;1.15;;;1.00;;
46128;SDS011;31860;45.186;5.790;2022-12-29T15:33:47;3.28;;;1.08;;
46128;SDS011;31860;45.186;5.790;2022-12-29T15:36:18;0.93;;;0.93;;
46128;SDS011;31860;45.186;5.790;2022-12-29T15:38:48;2.75;;;1.42;;
46128;SDS011;31860;45.186;5.790;2022-12-29T15:46:17;2.70;;;1.33;;
46128;SDS011;31860;45.186;5.790;2022-12-29T15:48:42;2.38;;;1.02;;
46128;SDS011;31860;45.186;5.790;2022-12-29T15:51:28;2.17;;;1.00;;
46128;SDS011;31860;45.186;5.790;2022-12-29T15:53:56;1.95;;;1.45;;
46128;SDS011;31860;45.186;5.790;2022-12-29T15:56:22;2.67;;;1.40;;
46128;SDS011;31860;45.186;5.790;2022-12-29T15:58:49;1.15;;;0.68;;
46128;SDS011;31860;45.186;5.790;2022-12-29T16:01:30;1.50;;;1.02;;
46128;SDS011;31860;45.186;5.790;2022-12-29T16:04:02;2.20;;;1.38;;
46128;SDS011;31860;45.186;5.790;2022-12-29T16:06:36;1.17;;;1.08;;
46128;SDS011;31860;45.186;5.790;2022-12-29T16:09:16;1.52;;;1.13;;
46128;SDS011;31860;45.186;5.790;2022-12-29T16:11:44;1.07;;;0.93;;
46128;SDS011;31860;45.186;5.790;2022-12-29T16:14:40;6.93;;;2.55;;
46128;SDS011;31860;45.186;5.790;2022-12-29T16:17:12;5.13;;;2.25;;
46128;SDS011;31860;45.186;5.790;2022-12-29T16:19:46;1.80;;;1.13;;
46128;SDS011;31860;45.186;5.790;2022-12-29T16:22:26;4.18;;;2.28;;
46128;SDS011;31860;45.186;5.790;2022-12-29T16:24:54;1.13;;;0.88;;
46128;SDS011;31860;45.186;5.790;2022-12-29T16:27:25;1.35;;;1.17;;
46128;SDS011;31860;45.186;5.790;2022-12-29T16:29:57;0.82;;;0.57;;
46128;SDS011;31860;45.186;5.790;2022-12-29T16:32:24;0.68;;;0.68;;
46128;SDS011;31860;45.186;5.790;2022-12-29T16:35:02;1.38;;;1.00;;
46128;SDS011;31860;45.186;5.790;2022-12-29T16:37:35;2.05;;;1.20;;
46128;SDS011;31860;45.186;5.790;2022-12-29T16:47:47;1.45;;;0.52;;
46128;SDS011;31860;45.186;5.790;2022-12-29T16:50:25;0.35;;;0.35;;
46128;SDS011;31860;45.186;5.790;2022-12-29T16:52:52;0.45;;;0.45;;
46128;SDS011;31860;45.186;5.790;2022-12-29T16:55:17;0.32;;;0.32;;
46128;SDS011;31860;45.186;5.790;2022-12-29T16:57:44;0.60;;;0.60;;
46128;SDS011;31860;45.186;5.790;2022-12-29T17:02:48;1.30;;;0.57;;
46128;SDS011;31860;45.186;5.790;2022-12-29T17:05:17;2.13;;;0.85;;
46128;SDS011;31860;45.186;5.790;2022-12-29T17:07:43;2.38;;;0.90;;
46128;SDS011;31860;45.186;5.790;2022-12-29T17:10:09;0.70;;;0.70;;
46128;SDS011;31860;45.186;5.790;2022-12-29T17:12:35;0.95;;;0.90;;
46128;SDS011;31860;45.186;5.790;2022-12-29T17:15:03;0.63;;;0.63;;
46128;SDS011;31860;45.186;5.790;2022-12-29T17:17:38;2.30;;;1.30;;
46128;SDS011;31860;45.186;5.790;2022-12-29T17:20:16;0.60;;;0.45;;
46128;SDS011;31860;45.186;5.790;2022-12-29T17:22:43;1.55;;;1.00;;
46128;SDS011;31860;45.186;5.790;2022-12-29T17:25:13;1.17;;;1.08;;
46128;SDS011;31860;45.186;5.790;2022-12-29T17:27:44;1.40;;;1.10;;
46128;SDS011;31860;45.186;5.790;2022-12-29T17:30:14;1.02;;;0.95;;
46128;SDS011;31860;45.186;5.790;2022-12-29T17:32:42;1.40;;;0.75;;
46128;SDS011;31860;45.186;5.790;2022-12-29T17:35:17;1.35;;;1.20;;
46128;SDS011;31860;45.186;5.790;2022-12-29T17:37:44;1.50;;;1.10;;
46128;SDS011;31860;45.186;5.790;2022-12-29T17:40:13;0.85;;;0.82;;
46128;SDS011;31860;45.186;5.790;2022-12-29T17:42:44;1.65;;;0.63;;
46128;SDS011;31860;45.186;5.790;2022-12-29T17:45:18;1.08;;;0.95;;
46128;SDS011;31860;45.186;5.790;2022-12-29T17:47:45;1.92;;;1.20;;
46128;SDS011;31860;45.186;5.790;2022-12-29T17:50:12;3.65;;;1.73;;
46128;SDS011;31860;45.186;5.790;2022-12-29T17:52:50;5.05;;;2.50;;
46128;SDS011;31860;45.186;5.790;2022-12-29T17:55:19;3.72;;;1.75;;
46128;SDS011;31860;45.186;5.790;2022-12-29T17:57:46;2.08;;;1.73;;
46128;SDS011;31860;45.186;5.790;2022-12-29T18:00:16;3.42;;;1.98;;
46128;SDS011;31860;45.186;5.790;2022-12-29T18:02:46;2.00;;;1.20;;
46128;SDS011;31860;45.186;5.790;2022-12-29T18:05:20;2.17;;;1.25;;
46128;SDS011;31860;45.186;5.790;2022-12-29T18:10:14;1.50;;;1.23;;
46128;SDS011;31860;45.186;5.790;2022-12-29T18:12:43;0.95;;;0.73;;